»·PEaware :: N899M KSAC-KRNO

N899M :: KSAC-KRNO

FLIGHT INFORMATION

Flight Status: Arrived
Operator: Privately registered:
United States
More flights under this callsign
Pilot: Robert C. (30425)
Aircraft: Unknown
(EPIC)
More flights by this aircraft type
Origin: KSAC Sacramento Executive
United States
Destination: KRNO Reno/Tahoe Intl
United States
More flights between these airports :: More routes between these airports
Route: +SAC V6 SWR TRUCK FMG
File this flight plan on PilotEdge
Remarks:
Altitude:
(Current/Filed)
13,000ft
Speed:
(Current/Filed)
300kts
Departed: 10-Nov-20 09:47 PM
Arrived: 10-Nov-20 10:25 PM
Distance/Time
Traveled:
100nm/0:38
Distance/Time
To Go:
Arrived

Flight Plot

Page will automatically refresh every two minutes.

Flight plan parsing failed; only flown route is shown


Map Options




Map Legend


Flown Route
Filed Route
Departure Airport
Arrival Airport
Navaid (VOR, NDB)
Fix

Horizontal Profiles

Position Reports

Time Latitude Longitude Heading Altitude Ground
Speed
10-Nov-20 21:06 38.513775 -121.497285 213 22ft 0kts
10-Nov-20 21:07 38.513775 -121.497285 213 22ft 0kts
10-Nov-20 21:08 38.513775 -121.497285 213 22ft 0kts
10-Nov-20 21:09 38.513775 -121.497285 213 22ft 0kts
10-Nov-20 21:10 38.513775 -121.497285 213 22ft 0kts
10-Nov-20 21:11 38.513775 -121.497285 213 22ft 0kts
10-Nov-20 21:18 38.513775 -121.497285 213 22ft 0kts
10-Nov-20 21:19 38.513775 -121.497285 213 22ft 0kts
10-Nov-20 21:20 38.513775 -121.497285 213 22ft 0kts
10-Nov-20 21:21 38.513775 -121.497285 213 22ft 0kts
10-Nov-20 21:22 38.513775 -121.497285 213 22ft 0kts
10-Nov-20 21:23 38.513775 -121.497285 213 22ft 0kts
10-Nov-20 21:24 38.513775 -121.497285 213 22ft 0kts
10-Nov-20 21:25 38.513775 -121.497285 213 22ft 0kts
10-Nov-20 21:26 38.513775 -121.497285 213 22ft 0kts
10-Nov-20 21:27 38.513775 -121.497285 213 22ft 0kts
10-Nov-20 21:28 38.513775 -121.497285 213 22ft 0kts
10-Nov-20 21:29 38.513775 -121.497285 213 22ft 0kts
10-Nov-20 21:30 38.513775 -121.497285 213 22ft 0kts
10-Nov-20 21:31 38.513775 -121.497285 213 22ft 0kts
10-Nov-20 21:32 38.513775 -121.497285 213 22ft 0kts
10-Nov-20 21:33 38.513775 -121.497285 213 22ft 0kts
10-Nov-20 21:34 38.513775 -121.497285 213 22ft 0kts
10-Nov-20 21:35 38.513775 -121.497285 213 22ft 0kts
10-Nov-20 21:36 38.513775 -121.497285 213 22ft 0kts
10-Nov-20 21:37 38.513775 -121.497285 213 22ft 0kts
10-Nov-20 21:38 38.513775 -121.497285 213 22ft 0kts
10-Nov-20 21:39 38.513425 -121.497106 112 22ft 4kts
10-Nov-20 21:40 38.513550 -121.495455 32 22ft 9kts
10-Nov-20 21:41 38.516200 -121.493288 32 23ft 2kts
10-Nov-20 21:42 38.518939 -121.491049 35 23ft 13kts
10-Nov-20 21:43 38.519200 -121.490559 98 23ft 0kts
10-Nov-20 21:44 38.519198 -121.490537 98 23ft 0kts
10-Nov-20 21:45 38.518644 -121.489542 211 23ft 1kts
10-Nov-20 21:46 38.490203 -121.512531 194 703ft 208kts
10-Nov-20 21:47 38.456471 -121.453942 104 1988ft 250kts
10-Nov-20 21:48 38.440845 -121.369598 103 3081ft 233kts
10-Nov-20 21:49 38.425084 -121.290479 103 4990ft 231kts
10-Nov-20 21:50 38.407424 -121.210856 103 6998ft 236kts
10-Nov-20 21:51 38.436024 -121.147051 39 9014ft 230kts
10-Nov-20 21:52 38.483964 -121.091282 37 11010ft 239kts
10-Nov-20 21:53 38.533820 -121.033231 37 13006ft 247kts
10-Nov-20 21:54 38.585210 -120.973263 36 14932ft 255kts
10-Nov-20 21:55 38.639647 -120.909553 37 15006ft 273kts
10-Nov-20 21:56 38.696617 -120.842904 37 15008ft 281kts
10-Nov-20 21:57 38.754328 -120.774973 37 15008ft 283kts
10-Nov-20 21:58 38.812551 -120.706416 37 15008ft 283kts
10-Nov-20 21:59 38.869689 -120.638983 37 15007ft 276kts
10-Nov-20 22:00 38.925775 -120.572638 36 15006ft 274kts
10-Nov-20 22:01 38.981770 -120.506259 35 15073ft 272kts
10-Nov-20 22:02 39.037740 -120.439769 35 15070ft 275kts
10-Nov-20 22:03 39.093477 -120.373409 34 15065ft 280kts
10-Nov-20 22:04 39.150875 -120.304908 35 15057ft 282kts
10-Nov-20 22:05 39.215173 -120.255231 10 15056ft 267kts
10-Nov-20 22:06 39.285927 -120.225510 10 15054ft 267kts
10-Nov-20 22:07 39.356579 -120.195902 10 15053ft 267kts
10-Nov-20 22:08 39.426792 -120.163878 30 15032ft 281kts
10-Nov-20 22:09 39.455637 -120.065938 71 15040ft 302kts
10-Nov-20 22:10 39.475179 -119.960848 71 14480ft 293kts
10-Nov-20 22:11 39.493460 -119.862057 71 13462ft 268kts
10-Nov-20 22:12 39.473477 -119.785098 161 12468ft 247kts
10-Nov-20 22:13 39.420078 -119.736153 113 11415ft 251kts
10-Nov-20 22:14 39.392063 -119.651476 112 10032ft 252kts
10-Nov-20 22:15 39.353050 -119.618129 222 10012ft 153kts
10-Nov-20 22:16 39.322985 -119.648301 263 10024ft 131kts
10-Nov-20 22:17 39.336711 -119.694475 292 10014ft 148kts
10-Nov-20 22:18 39.359330 -119.740279 314 8779ft 148kts
10-Nov-20 22:19 39.392825 -119.760626 348 6974ft 109kts
10-Nov-20 22:20 39.421457 -119.764186 346 5883ft 98kts
10-Nov-20 22:21 39.447892 -119.766015 350 5219ft 93kts
10-Nov-20 22:22 39.473694 -119.766914 351 4811ft 92kts
10-Nov-20 22:23 39.495865 -119.766939 0 4418ft 45kts
10-Nov-20 22:24 39.497424 -119.765649 90 4418ft 0kts
10-Nov-20 22:25 39.497442 -119.765400 68 4418ft 7kts
10-Nov-20 22:26 39.501801 -119.765091 45 4418ft 7kts
10-Nov-20 22:27 39.501925 -119.764785 82 4418ft 0kts
10-Nov-20 22:28 39.501925 -119.764785 82 4418ft 0kts

Navigation Log

Ident Type
Flight plan parsing failed, navigation log unavailable